createdAt,value
2023-05-10T00:00:10.147Z,100.00
2023-05-10T00:02:37.199Z,100.00
2023-05-10T00:05:04.111Z,100.00
2023-05-10T00:07:30.514Z,100.00
2023-05-10T00:09:56.931Z,100.00
2023-05-10T00:12:23.343Z,100.00
2023-05-10T00:14:49.740Z,100.00
2023-05-10T00:17:16.247Z,100.00
2023-05-10T00:19:42.787Z,100.00
2023-05-10T00:22:09.204Z,100.00
2023-05-10T00:24:35.647Z,100.00
2023-05-10T00:27:02.234Z,100.00
2023-05-10T00:29:29.342Z,100.00
2023-05-10T00:31:55.862Z,100.00
2023-05-10T00:34:22.291Z,100.00
2023-05-10T00:36:48.705Z,100.00
2023-05-10T00:39:15.091Z,100.00
2023-05-10T00:41:41.518Z,100.00
2023-05-10T00:44:07.987Z,100.00
2023-05-10T00:46:34.693Z,100.00
2023-05-10T00:49:01.435Z,100.00
2023-05-10T00:51:28.005Z,100.00
2023-05-10T00:53:54.909Z,100.00
2023-05-10T00:56:23.941Z,100.00
2023-05-10T00:58:50.709Z,100.00
2023-05-10T01:01:17.576Z,100.00
2023-05-10T01:03:44.637Z,100.00
2023-05-10T01:06:11.251Z,100.00
2023-05-10T01:08:37.978Z,100.00
2023-05-10T01:11:04.464Z,100.00
2023-05-10T01:13:43.221Z,100.00
2023-05-10T01:16:10.080Z,100.00
2023-05-10T01:18:40.319Z,100.00
2023-05-10T01:21:18.263Z,100.00
2023-05-10T01:24:09.730Z,100.00
2023-05-10T01:26:39.197Z,100.00
2023-05-10T01:29:37.834Z,100.00
2023-05-10T01:32:13.200Z,100.00
2023-05-10T01:35:07.276Z,100.00
2023-05-10T01:37:39.712Z,100.00
2023-05-10T01:40:24.208Z,100.00
2023-05-10T01:42:59.365Z,100.00
2023-05-10T01:45:34.863Z,100.00
2023-05-10T01:48:10.903Z,100.00
2023-05-10T01:50:40.987Z,100.00
2023-05-10T01:53:10.524Z,100.00
2023-05-10T01:55:43.925Z,100.00
2023-05-10T01:58:16.230Z,100.00
2023-05-10T02:00:45.620Z,100.00
2023-05-10T02:03:14.557Z,100.00
2023-05-10T02:05:42.342Z,100.00
2023-05-10T02:08:10.220Z,100.00
2023-05-10T02:10:37.144Z,100.00
2023-05-10T02:13:04.418Z,100.00
2023-05-10T02:15:32.185Z,100.00
2023-05-10T02:18:00.930Z,100.00
2023-05-10T02:20:28.169Z,100.00
2023-05-10T02:22:56.837Z,100.00
2023-05-10T02:25:26.001Z,100.00
2023-05-10T02:27:56.151Z,100.00
2023-05-10T02:30:24.199Z,100.00
2023-05-10T02:32:52.547Z,100.00
2023-05-10T02:35:20.269Z,100.00
2023-05-10T02:37:48.708Z,100.00
2023-05-10T02:40:17.777Z,100.00
2023-05-10T02:42:46.431Z,100.00
2023-05-10T02:45:16.263Z,100.00
2023-05-10T02:47:43.235Z,100.00
2023-05-10T02:50:10.537Z,100.00
2023-05-10T02:52:52.851Z,100.00
2023-05-10T02:55:23.626Z,100.00
2023-05-10T02:57:56.316Z,100.00
2023-05-10T03:00:22.827Z,100.00
2023-05-10T03:02:49.385Z,100.00
2023-05-10T03:05:15.827Z,100.00
2023-05-10T03:07:42.308Z,100.00
2023-05-10T03:10:09.285Z,100.00
2023-05-10T03:13:06.933Z,100.00
2023-05-10T03:15:39.121Z,100.00
2023-05-10T03:18:19.290Z,100.00
2023-05-10T03:20:49.839Z,100.00
2023-05-10T03:23:27.670Z,100.00
2023-05-10T03:25:54.356Z,100.00
2023-05-10T03:28:22.242Z,100.00
2023-05-10T03:30:50.516Z,100.00
2023-05-10T03:33:16.923Z,100.00
2023-05-10T03:35:45.061Z,100.00
2023-05-10T03:38:11.487Z,100.00
2023-05-10T03:40:38.206Z,100.00
2023-05-10T03:43:05.022Z,100.00
2023-05-10T03:45:31.776Z,100.00
2023-05-10T03:47:59.075Z,100.00
2023-05-10T03:50:25.983Z,100.00
2023-05-10T03:52:54.108Z,100.00
2023-05-10T03:55:21.413Z,100.00
2023-05-10T03:57:50.415Z,100.00
2023-05-10T04:00:17.767Z,100.00
2023-05-10T04:02:46.057Z,100.00
2023-05-10T04:05:13.461Z,100.00
2023-05-10T04:07:39.947Z,100.00
2023-05-10T04:10:06.770Z,100.00
2023-05-10T04:12:33.208Z,100.00
2023-05-10T04:14:59.620Z,100.00
2023-05-10T04:17:26.167Z,100.00
2023-05-10T04:19:55.541Z,100.00
2023-05-10T04:22:21.985Z,100.00
2023-05-10T04:24:48.382Z,100.00
2023-05-10T04:27:15.158Z,100.00
2023-05-10T04:29:42.516Z,100.00
2023-05-10T04:32:09.123Z,100.00
2023-05-10T04:34:35.528Z,100.00
2023-05-10T04:37:02.039Z,100.00
2023-05-10T04:39:28.437Z,100.00
2023-05-10T04:41:57.741Z,100.00
2023-05-10T04:44:24.224Z,100.00
2023-05-10T04:46:50.672Z,100.00
2023-05-10T04:49:17.696Z,100.00
2023-05-10T04:51:44.129Z,100.00
2023-05-10T04:54:11.267Z,100.00
2023-05-10T04:56:37.744Z,100.00
2023-05-10T04:59:04.144Z,100.00
2023-05-10T05:01:30.693Z,100.00
2023-05-10T05:03:57.407Z,100.00
2023-05-10T05:06:25.714Z,100.00
2023-05-10T05:08:52.396Z,100.00
2023-05-10T05:11:18.940Z,100.00
2023-05-10T05:13:45.524Z,100.00
2023-05-10T05:16:12.476Z,100.00
2023-05-10T05:18:39.422Z,100.00
2023-05-10T05:21:19.039Z,100.00
2023-05-10T05:23:45.780Z,100.00
2023-05-10T05:26:12.524Z,100.00
2023-05-10T05:28:39.389Z,100.00
2023-05-10T05:31:06.719Z,100.00
2023-05-10T05:33:33.237Z,100.00
2023-05-10T05:36:02.446Z,100.00
2023-05-10T05:38:29.033Z,100.00
2023-05-10T05:40:55.535Z,100.00
2023-05-10T05:43:21.962Z,100.00
2023-05-10T05:45:48.509Z,100.00
2023-05-10T05:48:14.955Z,100.00
2023-05-10T05:50:41.394Z,100.00
2023-05-10T05:53:07.775Z,100.00
2023-05-10T05:55:34.770Z,100.00
2023-05-10T05:58:01.155Z,100.00
2023-05-10T06:00:27.627Z,100.00
2023-05-10T06:02:54.104Z,100.00
2023-05-10T06:05:21.226Z,100.00
2023-05-10T06:07:47.653Z,100.00
2023-05-10T06:10:14.141Z,100.00
2023-05-10T06:12:40.662Z,100.00
2023-05-10T06:15:07.730Z,100.00
2023-05-10T06:17:34.213Z,100.00
2023-05-10T06:20:00.657Z,100.00
2023-05-10T06:22:27.140Z,100.00
2023-05-10T06:24:53.532Z,100.00
2023-05-10T06:27:19.935Z,100.00
2023-05-10T06:29:46.356Z,100.00
2023-05-10T06:32:12.862Z,100.00
2023-05-10T06:34:39.258Z,100.00
2023-05-10T06:37:05.710Z,100.00
2023-05-10T06:39:32.117Z,100.00
2023-05-10T06:41:58.519Z,100.00
2023-05-10T06:44:24.956Z,100.00
2023-05-10T06:46:52.118Z,100.00
2023-05-10T06:49:18.772Z,100.00
2023-05-10T06:51:46.047Z,100.00
2023-05-10T06:54:12.449Z,100.00
2023-05-10T06:56:38.864Z,100.00
2023-05-10T06:59:05.357Z,100.00
2023-05-10T07:01:31.840Z,100.00
2023-05-10T07:03:58.331Z,100.00
2023-05-10T07:06:33.429Z,100.00
2023-05-10T07:09:01.373Z,100.00
2023-05-10T07:11:27.960Z,100.00
2023-05-10T07:13:54.364Z,100.00
2023-05-10T07:16:20.878Z,100.00
2023-05-10T07:18:47.416Z,100.00
2023-05-10T07:21:13.974Z,100.00
2023-05-10T07:23:40.997Z,100.00
2023-05-10T07:26:08.525Z,100.00
2023-05-10T07:28:35.006Z,100.00
2023-05-10T07:31:01.444Z,100.00
2023-05-10T07:33:27.917Z,100.00
2023-05-10T07:35:54.393Z,100.00
2023-05-10T07:38:20.812Z,100.00
2023-05-10T07:40:47.219Z,100.00
2023-05-10T07:43:13.649Z,100.00
2023-05-10T07:45:40.112Z,100.00
2023-05-10T07:48:09.610Z,100.00
2023-05-10T07:50:36.161Z,100.00
2023-05-10T07:53:02.567Z,100.00
2023-05-10T07:55:28.951Z,100.00
2023-05-10T07:57:55.441Z,100.00
2023-05-10T08:00:21.902Z,100.00
2023-05-10T08:02:48.854Z,97.96
2023-05-10T08:05:16.236Z,97.45
2023-05-10T08:07:43.427Z,98.44
2023-05-10T08:10:11.914Z,96.89
2023-05-10T08:12:39.287Z,96.65
2023-05-10T08:15:06.433Z,94.73
2023-05-10T08:17:33.467Z,94.83
2023-05-10T08:20:00.010Z,95.36
2023-05-10T08:22:27.027Z,93.29
2023-05-10T08:24:53.463Z,95.22
2023-05-10T08:27:19.882Z,96.76
2023-05-10T08:29:49.920Z,96.54
2023-05-10T08:32:16.975Z,94.42
2023-05-10T08:34:43.434Z,93.00
2023-05-10T08:37:11.451Z,93.77
2023-05-10T08:39:38.307Z,92.93
2023-05-10T08:42:05.929Z,94.14
2023-05-10T08:44:35.041Z,93.63
2023-05-10T08:47:05.731Z,93.51
2023-05-10T08:49:33.703Z,95.09
2023-05-10T08:52:04.375Z,94.82
2023-05-10T08:54:32.951Z,95.14
2023-05-10T08:56:59.523Z,96.27
2023-05-10T08:59:26.210Z,96.86
2023-05-10T09:01:55.030Z,97.34
2023-05-10T09:04:22.223Z,97.43
2023-05-10T09:06:48.939Z,95.40
2023-05-10T09:09:17.065Z,94.86
2023-05-10T09:11:44.401Z,93.84
2023-05-10T09:14:11.216Z,92.72
2023-05-10T09:16:37.777Z,92.74
2023-05-10T09:19:04.469Z,92.91
2023-05-10T09:21:32.101Z,93.32
2023-05-10T09:24:04.190Z,92.23
2023-05-10T09:26:30.671Z,92.71
2023-05-10T09:28:59.305Z,93.37
2023-05-10T09:31:26.778Z,92.00
2023-05-10T09:33:54.302Z,90.76
2023-05-10T09:36:20.768Z,90.76
2023-05-10T09:38:52.813Z,87.97
2023-05-10T09:41:21.649Z,88.12
2023-05-10T09:43:48.643Z,88.62
2023-05-10T09:46:16.874Z,88.40
2023-05-10T09:48:46.475Z,88.45
2023-05-10T09:51:25.794Z,88.55
2023-05-10T09:54:16.602Z,86.96
2023-05-10T09:56:45.846Z,85.93
2023-05-10T09:59:13.348Z,86.32
2023-05-10T10:01:40.216Z,84.83
2023-05-10T10:04:08.672Z,85.12
2023-05-10T10:06:39.445Z,85.98
2023-05-10T10:09:07.372Z,84.46
2023-05-10T10:11:36.393Z,84.44
2023-05-10T10:14:03.026Z,84.52
2023-05-10T10:16:33.254Z,83.07
2023-05-10T10:18:59.896Z,83.07
2023-05-10T10:21:26.678Z,82.20
2023-05-10T10:23:54.071Z,82.52
2023-05-10T10:26:22.358Z,81.75
2023-05-10T10:29:24.164Z,82.83
2023-05-10T10:32:02.142Z,82.52
2023-05-10T10:34:30.132Z,82.79
2023-05-10T10:36:58.027Z,81.60
2023-05-10T10:39:28.400Z,82.13
2023-05-10T10:41:56.043Z,83.19
2023-05-10T10:44:25.571Z,82.35
2023-05-10T10:47:19.539Z,82.81
2023-05-10T10:49:53.236Z,84.03
2023-05-10T10:52:22.937Z,84.68
2023-05-10T10:55:11.733Z,82.19
2023-05-10T10:57:41.255Z,83.42
2023-05-10T11:00:25.202Z,82.09
2023-05-10T11:02:52.532Z,82.45
2023-05-10T11:05:36.433Z,84.20
2023-05-10T11:08:10.589Z,86.03
2023-05-10T11:10:37.390Z,85.45
2023-05-10T11:13:08.713Z,84.52
2023-05-10T11:15:40.907Z,86.12
2023-05-10T11:18:30.236Z,85.55
2023-05-10T11:21:04.200Z,85.96
2023-05-10T11:23:52.111Z,87.07
2023-05-10T11:26:19.436Z,87.13
2023-05-10T11:28:50.039Z,86.60
2023-05-10T11:31:17.980Z,85.26
2023-05-10T11:33:52.274Z,85.77
2023-05-10T11:36:24.336Z,87.30
2023-05-10T11:38:50.824Z,87.63
2023-05-10T11:41:19.322Z,87.12
2023-05-10T11:43:49.736Z,87.24
2023-05-10T11:46:16.894Z,85.47
2023-05-10T11:48:43.933Z,85.29
2023-05-10T11:51:11.640Z,84.08
2023-05-10T11:53:39.011Z,85.29
2023-05-10T11:56:09.252Z,84.22
2023-05-10T11:58:37.342Z,83.04
2023-05-10T12:01:05.338Z,81.56
2023-05-10T12:03:32.556Z,81.35
2023-05-10T12:06:00.200Z,80.76
2023-05-10T12:08:29.114Z,80.07
2023-05-10T12:11:08.413Z,79.68
2023-05-10T12:13:42.109Z,78.83
2023-05-10T12:16:20.820Z,78.43
2023-05-10T12:18:54.657Z,76.69
2023-05-10T12:21:22.080Z,77.32
2023-05-10T12:23:51.507Z,80.00
2023-05-10T12:26:18.269Z,81.40
2023-05-10T12:28:45.314Z,80.90
2023-05-10T12:31:11.816Z,77.45
2023-05-10T12:33:44.024Z,78.36
2023-05-10T12:36:12.662Z,78.03
2023-05-10T12:38:43.181Z,78.74
2023-05-10T12:41:14.685Z,78.90
2023-05-10T12:43:41.683Z,75.50
2023-05-10T12:46:15.736Z,77.55
2023-05-10T12:48:43.716Z,78.34
2023-05-10T12:51:12.704Z,77.31
2023-05-10T12:53:41.680Z,75.43
2023-05-10T12:56:10.848Z,77.79
2023-05-10T12:58:37.304Z,76.75
2023-05-10T13:01:04.169Z,75.91
2023-05-10T13:03:34.172Z,75.10
2023-05-10T13:06:00.810Z,76.22
2023-05-10T13:08:27.351Z,74.82
2023-05-10T13:10:54.189Z,75.78
2023-05-10T13:13:20.694Z,75.12
2023-05-10T13:15:47.135Z,76.45
2023-05-10T13:18:13.955Z,77.00
2023-05-10T13:20:40.526Z,76.55
2023-05-10T13:23:07.011Z,76.79
2023-05-10T13:25:35.221Z,76.39
2023-05-10T13:28:02.096Z,76.20
2023-05-10T13:30:29.705Z,74.46
2023-05-10T13:32:56.237Z,74.33
2023-05-10T13:35:22.889Z,75.97
2023-05-10T13:37:49.337Z,75.28
2023-05-10T13:40:16.763Z,73.07
2023-05-10T13:42:43.512Z,73.60
2023-05-10T13:45:13.198Z,74.23
2023-05-10T13:47:40.038Z,72.56
2023-05-10T13:50:07.207Z,72.09
2023-05-10T13:52:33.693Z,73.31
2023-05-10T13:55:00.163Z,73.18
2023-05-10T13:57:26.728Z,72.08
2023-05-10T13:59:53.827Z,74.18
2023-05-10T14:02:21.165Z,72.58
2023-05-10T14:04:47.826Z,73.23
2023-05-10T14:07:14.226Z,71.26
2023-05-10T14:09:40.777Z,73.39
2023-05-10T14:12:07.240Z,70.95
2023-05-10T14:14:33.683Z,71.09
2023-05-10T14:17:00.340Z,68.99
2023-05-10T14:19:27.972Z,68.48
2023-05-10T14:21:54.420Z,71.17
2023-05-10T14:24:20.799Z,69.23
2023-05-10T14:26:47.265Z,69.90
2023-05-10T14:29:13.921Z,71.25
2023-05-10T14:31:41.624Z,70.86
2023-05-10T14:34:08.112Z,72.12
2023-05-10T14:36:34.594Z,71.15
2023-05-10T14:39:01.090Z,71.71
2023-05-10T14:41:27.561Z,72.05
2023-05-10T14:43:54.270Z,71.23
2023-05-10T14:46:20.843Z,72.59
2023-05-10T14:48:47.511Z,70.25
2023-05-10T14:51:14.149Z,70.56
2023-05-10T14:53:40.585Z,69.38
2023-05-10T14:56:08.048Z,69.84
2023-05-10T14:58:34.602Z,66.76
2023-05-10T15:01:01.690Z,66.19
2023-05-10T15:03:28.732Z,67.43
2023-05-10T15:05:57.032Z,67.20
2023-05-10T15:08:24.815Z,69.29
2023-05-10T15:10:52.232Z,68.10
2023-05-10T15:13:18.615Z,67.64
2023-05-10T15:15:45.075Z,69.44
2023-05-10T15:18:11.586Z,68.89
2023-05-10T15:20:38.094Z,69.79
2023-05-10T15:23:04.559Z,71.56
2023-05-10T15:25:31.040Z,71.13
2023-05-10T15:27:57.443Z,71.31
2023-05-10T15:30:24.037Z,71.71
2023-05-10T15:32:50.559Z,71.28
2023-05-10T15:35:17.930Z,71.05
2023-05-10T15:37:45.673Z,72.45
2023-05-10T15:40:12.400Z,71.80
2023-05-10T15:42:38.892Z,71.33
2023-05-10T15:45:05.885Z,70.66
2023-05-10T15:47:32.697Z,71.39
2023-05-10T15:49:59.229Z,72.04
2023-05-10T15:52:25.693Z,70.76
2023-05-10T15:54:52.155Z,70.63
2023-05-10T15:57:18.597Z,70.59
2023-05-10T15:59:45.835Z,71.51
2023-05-10T16:02:12.422Z,71.16
2023-05-10T16:04:39.136Z,71.07
2023-05-10T16:07:05.927Z,71.71
2023-05-10T16:09:32.439Z,71.41
2023-05-10T16:11:58.889Z,71.37
2023-05-10T16:14:25.327Z,71.00
2023-05-10T16:16:52.269Z,71.32
2023-05-10T16:19:18.976Z,70.49
2023-05-10T16:21:45.613Z,70.67
2023-05-10T16:24:12.271Z,70.76
2023-05-10T16:26:41.115Z,71.29
2023-05-10T16:29:08.643Z,71.22
2023-05-10T16:31:35.309Z,72.09
2023-05-10T16:34:02.050Z,71.11
2023-05-10T16:36:29.577Z,71.45
2023-05-10T16:38:56.565Z,71.73
2023-05-10T16:41:23.024Z,69.92
2023-05-10T16:43:50.066Z,70.83
2023-05-10T16:46:16.682Z,71.37
2023-05-10T16:48:43.322Z,71.62
2023-05-10T16:51:09.838Z,72.53
2023-05-10T16:53:36.356Z,72.83
2023-05-10T16:56:03.142Z,72.73
2023-05-10T16:58:29.614Z,72.84
2023-05-10T17:00:56.129Z,72.90
2023-05-10T17:03:22.826Z,73.19
2023-05-10T17:05:49.337Z,73.23
2023-05-10T17:08:16.450Z,73.39
2023-05-10T17:10:42.968Z,73.65
2023-05-10T17:13:10.570Z,74.49
2023-05-10T17:15:38.248Z,74.74
2023-05-10T17:18:06.898Z,74.98
2023-05-10T17:20:34.176Z,75.20
2023-05-10T17:23:02.597Z,76.87
2023-05-10T17:25:29.613Z,76.06
2023-05-10T17:27:56.064Z,76.21
2023-05-10T17:30:26.304Z,75.85
2023-05-10T17:32:54.193Z,76.07
2023-05-10T17:35:21.322Z,76.67
2023-05-10T17:37:47.867Z,76.83
2023-05-10T17:40:14.347Z,77.81
2023-05-10T17:42:40.976Z,77.26
2023-05-10T17:45:08.010Z,77.23
2023-05-10T17:47:34.528Z,77.41
2023-05-10T17:50:01.051Z,77.50
2023-05-10T17:52:30.843Z,77.32
2023-05-10T17:54:59.631Z,78.08
2023-05-10T17:57:26.252Z,78.10
2023-05-10T17:59:52.719Z,78.11
2023-05-10T18:02:19.187Z,78.34
2023-05-10T18:04:45.759Z,77.98
2023-05-10T18:07:12.388Z,78.86
2023-05-10T18:09:38.817Z,78.78
2023-05-10T18:12:05.997Z,78.72
2023-05-10T18:14:40.693Z,79.12
2023-05-10T18:17:08.165Z,79.00
2023-05-10T18:19:34.736Z,79.41
2023-05-10T18:22:01.193Z,79.23
2023-05-10T18:24:38.252Z,79.36
2023-05-10T18:27:05.926Z,79.79
2023-05-10T18:29:32.688Z,80.68
2023-05-10T18:31:59.097Z,80.05
2023-05-10T18:34:25.708Z,80.01
2023-05-10T18:36:52.643Z,80.16
2023-05-10T18:39:19.244Z,80.33
2023-05-10T18:41:45.681Z,81.01
2023-05-10T18:44:12.277Z,80.65
2023-05-10T18:46:39.008Z,80.74
2023-05-10T18:49:06.537Z,81.48
2023-05-10T18:51:33.069Z,81.17
2023-05-10T18:53:59.534Z,81.51
2023-05-10T18:56:26.073Z,81.75
2023-05-10T18:58:52.721Z,82.14
2023-05-10T19:01:19.244Z,82.01
2023-05-10T19:03:45.782Z,82.18
2023-05-10T19:06:12.215Z,82.32
2023-05-10T19:08:38.733Z,82.20
2023-05-10T19:11:05.270Z,82.36
2023-05-10T19:13:31.878Z,82.98
2023-05-10T19:16:13.010Z,83.45
2023-05-10T19:18:39.946Z,83.11
2023-05-10T19:21:09.865Z,82.92
2023-05-10T19:23:41.668Z,83.10
2023-05-10T19:26:09.572Z,83.58
2023-05-10T19:28:37.001Z,83.54
2023-05-10T19:31:03.524Z,83.74
2023-05-10T19:33:29.990Z,84.27
2023-05-10T19:35:56.411Z,84.65
2023-05-10T19:38:24.052Z,85.43
2023-05-10T19:40:57.447Z,85.04
2023-05-10T19:43:28.447Z,85.81
2023-05-10T19:45:58.061Z,86.41
2023-05-10T19:48:24.942Z,87.15
2023-05-10T19:50:52.036Z,86.91
2023-05-10T19:53:18.594Z,86.37
2023-05-10T19:55:45.261Z,86.38
2023-05-10T19:58:11.846Z,86.67
2023-05-10T20:00:38.315Z,87.23
2023-05-10T20:03:09.283Z,87.13
2023-05-10T20:05:35.913Z,87.71
2023-05-10T20:08:02.558Z,87.71
2023-05-10T20:10:29.146Z,87.66
2023-05-10T20:12:55.670Z,87.68
2023-05-10T20:15:23.428Z,88.14
2023-05-10T20:17:52.040Z,88.34
2023-05-10T20:20:20.167Z,89.21
2023-05-10T20:22:47.916Z,89.44
2023-05-10T20:25:15.882Z,89.13
2023-05-10T20:27:42.782Z,89.45
2023-05-10T20:30:10.424Z,88.93
2023-05-10T20:32:37.937Z,88.98
2023-05-10T20:35:05.602Z,89.45
2023-05-10T20:37:32.052Z,89.67
2023-05-10T20:39:58.725Z,89.26
2023-05-10T20:42:25.193Z,90.65
2023-05-10T20:44:51.753Z,89.86
2023-05-10T20:47:18.245Z,90.55
2023-05-10T20:49:44.693Z,90.33
2023-05-10T20:52:11.418Z,89.87
2023-05-10T20:54:38.000Z,91.62
2023-05-10T20:57:04.386Z,90.90
2023-05-10T20:59:30.878Z,90.49
2023-05-10T21:01:57.911Z,92.48
2023-05-10T21:04:25.665Z,91.96
2023-05-10T21:06:53.010Z,90.51
2023-05-10T21:09:19.645Z,90.53
2023-05-10T21:11:46.171Z,90.49
2023-05-10T21:14:12.646Z,90.35
2023-05-10T21:16:39.116Z,90.16
2023-05-10T21:19:07.147Z,90.24
2023-05-10T21:21:33.956Z,90.38
2023-05-10T21:24:00.475Z,90.56
2023-05-10T21:26:26.894Z,90.55
2023-05-10T21:28:53.422Z,90.59
2023-05-10T21:31:20.192Z,90.63
2023-05-10T21:33:46.784Z,90.85
2023-05-10T21:36:13.795Z,91.07
2023-05-10T21:38:40.923Z,91.14
2023-05-10T21:41:08.043Z,91.31
2023-05-10T21:43:34.629Z,91.31
2023-05-10T21:46:01.470Z,91.50
2023-05-10T21:48:28.063Z,91.79
2023-05-10T21:50:54.594Z,91.71
2023-05-10T21:53:21.071Z,91.86
2023-05-10T21:55:48.334Z,91.91
2023-05-10T21:58:14.753Z,92.01
2023-05-10T22:00:41.136Z,92.49
2023-05-10T22:03:07.774Z,95.44
2023-05-10T22:05:34.399Z,98.68
2023-05-10T22:08:01.012Z,99.45
2023-05-10T22:10:27.578Z,99.38
2023-05-10T22:12:54.016Z,99.56
2023-05-10T22:15:20.431Z,100.00
2023-05-10T22:17:46.990Z,100.00
2023-05-10T22:20:13.756Z,99.67
2023-05-10T22:22:40.283Z,99.90
2023-05-10T22:25:07.642Z,99.96
2023-05-10T22:27:34.545Z,100.00
2023-05-10T22:30:01.591Z,100.00
2023-05-10T22:32:28.370Z,99.19
2023-05-10T22:34:54.911Z,98.37
2023-05-10T22:37:21.367Z,97.88
2023-05-10T22:39:48.885Z,100.00
2023-05-10T22:42:16.200Z,100.00
2023-05-10T22:44:43.402Z,100.00
2023-05-10T22:47:10.065Z,100.00
2023-05-10T22:49:36.596Z,100.00
2023-05-10T22:52:03.042Z,100.00
2023-05-10T22:54:29.555Z,100.00
2023-05-10T22:56:56.619Z,100.00
2023-05-10T22:59:23.708Z,100.00
2023-05-10T23:01:50.645Z,100.00
2023-05-10T23:04:17.209Z,100.00
2023-05-10T23:06:43.718Z,100.00
2023-05-10T23:09:10.105Z,100.00
2023-05-10T23:11:36.535Z,99.24
2023-05-10T23:14:03.143Z,99.93
2023-05-10T23:16:30.483Z,99.75
2023-05-10T23:18:57.089Z,98.19
2023-05-10T23:21:25.120Z,97.79
2023-05-10T23:23:51.642Z,98.20
2023-05-10T23:26:18.103Z,97.83
2023-05-10T23:28:44.484Z,97.43
2023-05-10T23:31:11.050Z,98.35
2023-05-10T23:33:37.479Z,98.19
2023-05-10T23:36:04.088Z,97.02
2023-05-10T23:38:30.654Z,96.68
2023-05-10T23:40:58.411Z,96.89
2023-05-10T23:43:25.449Z,97.53
2023-05-10T23:45:53.764Z,96.72
2023-05-10T23:48:20.247Z,96.19
2023-05-10T23:50:46.695Z,96.10
2023-05-10T23:53:13.281Z,96.04
2023-05-10T23:55:39.806Z,96.67
2023-05-10T23:58:06.418Z,96.95
